Time;durP1;ratioP1;P1;durP2;ratioP2;P2;SDS_P1;SDS_P2;PMS_P1;PMS_P2;Temp;Humidity;BMP_temperature;BMP_pressure;BME280_temperature;BME280_humidity;BME280_pressure;Samples;Min_cycle;Max_cycle;Signal;HPM_P1;HPM_P2
2022/04/29 00:01:03;;;;;;;0.90;0.90;;;19.00;48.30;;;;;;5076805;28;44928;-60
2022/04/29 00:03:31;;;;;;;1.23;1.00;;;19.00;48.30;;;;;;5070283;28;44169;-59
2022/04/29 00:05:59;;;;;;;0.85;0.85;;;19.00;48.30;;;;;;5080071;28;43449;-59
2022/04/29 00:08:28;;;;;;;0.95;0.95;;;19.00;48.30;;;;;;5081540;28;43391;-59
2022/04/29 00:10:56;;;;;;;0.80;0.80;;;19.00;48.30;;;;;;5074667;27;43874;-59
2022/04/29 00:13:24;;;;;;;1.58;0.93;;;18.90;48.30;;;;;;5068892;28;43669;-62
2022/04/29 00:15:52;;;;;;;0.82;0.80;;;19.00;48.30;;;;;;5075608;28;43462;-60
2022/04/29 00:18:23;;;;;;;1.05;0.95;;;18.90;48.30;;;;;;5060946;28;43574;-59
2022/04/29 00:20:51;;;;;;;1.38;1.00;;;18.90;48.30;;;;;;5072204;28;44889;-60
2022/04/29 00:23:18;;;;;;;0.88;0.88;;;18.90;48.30;;;;;;5067062;28;43835;-60
2022/04/29 00:25:45;;;;;;;1.05;1.00;;;18.90;48.30;;;;;;5077418;28;43757;-60
2022/04/29 00:28:13;;;;;;;1.60;1.08;;;18.90;48.30;;;;;;5080630;28;43406;-60
2022/04/29 00:30:40;;;;;;;1.15;1.02;;;18.90;48.40;;;;;;5071129;27;43836;-60
2022/04/29 00:33:07;;;;;;;1.38;1.00;;;18.90;48.40;;;;;;5067056;28;43773;-60
2022/04/29 00:35:35;;;;;;;1.70;0.90;;;18.80;48.30;;;;;;5076370;28;43488;-60
2022/04/29 00:38:02;;;;;;;1.10;1.00;;;18.80;48.30;;;;;;5077938;28;43533;-60
2022/04/29 00:40:31;;;;;;;1.70;1.00;;;18.80;48.30;;;;;;5064741;28;44969;-60
2022/04/29 00:42:58;;;;;;;0.90;0.90;;;18.80;48.30;;;;;;5092061;27;43529;-60
2022/04/29 00:45:26;;;;;;;0.98;0.93;;;18.80;48.30;;;;;;5062559;28;43504;-60
2022/04/29 00:47:54;;;;;;;1.00;0.90;;;18.80;48.30;;;;;;5074374;28;43564;-60
2022/04/29 00:50:24;;;;;;;0.90;0.90;;;18.80;48.40;;;;;;5067971;28;44765;-59
2022/04/29 00:52:53;;;;;;;0.90;0.90;;;18.80;48.30;;;;;;5083388;27;43495;-60
2022/04/29 00:55:22;;;;;;;0.98;0.80;;;18.80;48.30;;;;;;5074117;28;43454;-60
2022/04/29 00:58:12;;;;;;;1.20;1.10;;;18.70;48.30;;;;;;5073024;28;43514;-60
2022/04/29 01:00:40;;;;;;;0.88;0.88;;;18.70;48.30;;;;;;5071848;27;44050;-60
2022/04/29 01:03:11;;;;;;;0.93;0.93;;;18.70;48.30;;;;;;5076171;28;43444;-60
2022/04/29 01:05:40;;;;;;;1.35;1.13;;;18.70;48.40;;;;;;5077453;28;44098;-59
2022/04/29 01:08:08;;;;;;;1.15;1.08;;;18.70;48.30;;;;;;5051428;28;43427;-60
2022/04/29 01:10:36;;;;;;;0.88;0.88;;;18.70;48.40;;;;;;5066454;28;44111;-59
2022/04/29 01:13:04;;;;;;;1.05;0.95;;;18.70;48.40;;;;;;5078380;28;44189;-60
2022/04/29 01:15:32;;;;;;;0.80;0.80;;;18.70;48.40;;;;;;5073421;28;43532;-59
2022/04/29 01:18:06;;;;;;;;;;;18.70;48.40;;;;;;5068458;28;43515;-60
2022/04/29 01:20:33;;;;;;;0.60;0.60;;;18.70;48.40;;;;;;5080668;28;45556;-59
2022/04/29 01:23:08;;;;;;;1.00;0.90;;;18.60;48.40;;;;;;5094720;27;43712;-60
2022/04/29 01:25:36;;;;;;;0.93;0.80;;;18.70;48.50;;;;;;5068419;28;43593;-60
2022/04/29 01:28:04;;;;;;;0.85;0.85;;;18.60;48.40;;;;;;5061774;28;43654;-60
2022/04/29 01:30:33;;;;;;;1.85;1.15;;;18.60;48.40;;;;;;5077857;28;43787;-59
2022/04/29 01:33:01;;;;;;;1.17;1.08;;;18.60;48.50;;;;;;5077013;28;44183;-61
2022/04/29 01:35:29;;;;;;;1.20;0.90;;;18.60;48.40;;;;;;5069580;28;43497;-60
2022/04/29 01:37:58;;;;;;;1.33;1.00;;;18.60;48.40;;;;;;5076129;28;43481;-60
2022/04/29 01:40:25;;;;;;;1.55;1.05;;;18.60;48.40;;;;;;5075027;28;44640;-59
2022/04/29 01:42:53;;;;;;;0.98;0.88;;;18.60;48.40;;;;;;5073397;27;43685;-60
2022/04/29 01:45:20;;;;;;;1.02;0.93;;;18.60;48.50;;;;;;5063842;28;44061;-59
2022/04/29 01:48:01;;;;;;;1.60;0.98;;;18.60;48.50;;;;;;5077617;28;43883;-59
2022/04/29 01:50:43;;;;;;;1.30;1.05;;;18.50;48.40;;;;;;5077485;28;44019;-60
2022/04/29 01:53:11;;;;;;;0.95;0.85;;;18.50;48.50;;;;;;5073702;28;43941;-61
2022/04/29 01:55:38;;;;;;;1.20;0.90;;;18.50;48.50;;;;;;5062450;28;43519;-60
2022/04/29 01:58:07;;;;;;;1.77;0.80;;;18.50;48.50;;;;;;5061495;28;43518;-59
2022/04/29 02:00:35;;;;;;;1.10;1.00;;;18.50;48.50;;;;;;5068140;28;43985;-59
2022/04/29 02:03:03;;;;;;;0.90;0.88;;;18.50;48.50;;;;;;5066036;28;43505;-60
2022/04/29 02:05:30;;;;;;;1.08;0.70;;;18.50;48.50;;;;;;5062097;28;43428;-59
2022/04/29 02:08:00;;;;;;;0.80;0.75;;;18.50;48.50;;;;;;5075045;28;43430;-61
2022/04/29 02:10:29;;;;;;;;;;;18.50;48.50;;;;;;5077359;28;44057;-60
2022/04/29 02:12:57;;;;;;;1.00;0.90;;;18.50;48.50;;;;;;5063501;28;43552;-60
2022/04/29 02:15:57;;;;;;;1.13;1.00;;;18.40;48.50;;;;;;5028549;28;43450;-60
2022/04/29 02:18:25;;;;;;;1.67;1.10;;;18.40;48.50;;;;;;5078014;28;43600;-60
2022/04/29 02:20:52;;;;;;;0.80;0.80;;;18.40;48.50;;;;;;5067704;28;45289;-61
2022/04/29 02:23:20;;;;;;;0.77;0.77;;;18.40;48.50;;;;;;5066826;27;43666;-60
2022/04/29 02:25:47;;;;;;;1.20;0.88;;;18.40;48.50;;;;;;5080730;28;43992;-61
2022/04/29 02:28:15;;;;;;;1.55;1.02;;;18.40;48.50;;;;;;5062491;28;43512;-60
2022/04/29 02:30:43;;;;;;;2.10;1.30;;;18.40;48.50;;;;;;5071599;28;44707;-60
2022/04/29 02:33:10;;;;;;;1.02;0.93;;;18.40;48.50;;;;;;5070402;28;43464;-60
2022/04/29 02:35:38;;;;;;;0.73;0.70;;;18.40;48.50;;;;;;5081352;28;43567;-61
2022/04/29 02:38:06;;;;;;;0.80;0.80;;;18.40;48.50;;;;;;5080191;28;43492;-60
2022/04/29 02:40:34;;;;;;;1.02;0.93;;;18.40;48.50;;;;;;5072074;28;44944;-60
2022/04/29 02:43:01;;;;;;;1.15;0.98;;;18.40;48.50;;;;;;5097575;27;43703;-60
2022/04/29 02:45:29;;;;;;;0.85;0.80;;;18.30;48.40;;;;;;5077205;28;43457;-60
2022/04/29 02:47:56;;;;;;;0.80;0.80;;;18.40;48.50;;;;;;5070256;28;43455;-60
2022/04/29 02:50:25;;;;;;;0.88;0.80;;;18.40;48.50;;;;;;5066081;28;44954;-60
2022/04/29 02:53:00;;;;;;;2.10;1.08;;;18.30;48.50;;;;;;5078593;28;43797;-60
2022/04/29 02:55:29;;;;;;;0.95;0.95;;;18.30;48.50;;;;;;5079627;28;43399;-59
2022/04/29 02:58:13;;;;;;;0.80;0.80;;;18.30;48.50;;;;;;5064815;28;43633;-60
2022/04/29 03:00:41;;;;;;;0.90;0.90;;;18.30;48.50;;;;;;5065182;28;43826;-59
2022/04/29 03:03:09;;;;;;;0.70;0.70;;;18.30;48.60;;;;;;5078917;28;43542;-58
2022/04/29 03:05:36;;;;;;;1.48;0.85;;;18.30;48.50;;;;;;5080082;28;43432;-60
2022/04/29 03:08:05;;;;;;;1.50;0.80;;;18.20;49.10;;;;;;5072798;27;43571;-60
2022/04/29 03:10:34;;;;;;;1.23;1.00;;;18.20;48.50;;;;;;5079166;28;45043;-59
2022/04/29 03:13:01;;;;;;;1.33;1.00;;;18.20;48.50;;;;;;5092867;27;43545;-59
2022/04/29 03:15:36;;;;;;;0.80;0.80;;;18.20;48.50;;;;;;5073374;28;43498;-60
2022/04/29 03:18:20;;;;;;;0.95;0.85;;;18.20;48.50;;;;;;5069287;28;43546;-59
2022/04/29 03:20:52;;;;;;;1.00;1.00;;;18.20;48.50;;;;;;5079060;28;45014;-59
2022/04/29 03:23:22;;;;;;;1.08;0.80;;;18.20;49.20;;;;;;5080982;27;43814;-60
2022/04/29 03:25:53;;;;;;;1.00;0.90;;;18.20;48.60;;;;;;5066729;28;44177;-59
2022/04/29 03:28:22;;;;;;;1.05;0.95;;;18.20;48.60;;;;;;5066323;28;43450;-60
2022/04/29 03:30:50;;;;;;;2.85;1.20;;;18.20;48.50;;;;;;5080115;28;44974;-60
2022/04/29 03:33:21;;;;;;;1.25;0.82;;;18.20;48.60;;;;;;5077027;28;43514;-61
2022/04/29 03:35:52;;;;;;;0.80;0.77;;;18.20;48.60;;;;;;5065254;28;43475;-60
2022/04/29 03:38:36;;;;;;;0.98;0.80;;;18.20;48.60;;;;;;5074979;28;43527;-60
2022/04/29 03:41:05;;;;;;;0.95;0.70;;;18.10;49.20;;;;;;5080779;28;44986;-59
2022/04/29 03:43:34;;;;;;;0.95;0.85;;;18.10;48.60;;;;;;5073769;28;43514;-60
2022/04/29 03:46:02;;;;;;;0.82;0.70;;;18.10;48.60;;;;;;5069842;28;43438;-59
2022/04/29 03:51:48;;;;;;;1.00;0.90;;;18.10;48.50;;;;;;5073924;28;43953;-59
2022/04/29 03:54:15;;;;;;;1.08;0.80;;;18.10;48.60;;;;;;5069710;28;43503;-60
2022/04/29 03:56:51;;;;;;;1.50;0.90;;;18.10;48.60;;;;;;5071060;28;43608;-61
2022/04/29 03:59:19;;;;;;;1.33;0.80;;;18.10;48.60;;;;;;5081810;28;43560;-59
2022/04/29 04:01:47;;;;;;;1.25;0.90;;;18.10;48.60;;;;;;5073289;28;44323;-60
2022/04/29 04:04:15;;;;;;;0.90;0.90;;;18.10;48.60;;;;;;5071492;28;43582;-60
2022/04/29 04:06:49;;;;;;;1.08;0.85;;;18.10;48.60;;;;;;5070365;28;43524;-59
2022/04/29 04:09:34;;;;;;;0.93;0.85;;;18.10;48.60;;;;;;5075027;28;43518;-60
2022/04/29 04:12:05;;;;;;;;;;;18.10;48.60;;;;;;5075087;28;44046;-59
2022/04/29 04:15:00;;;;;;;2.05;1.13;;;18.10;48.60;;;;;;5069721;28;43506;-60
2022/04/29 04:17:29;;;;;;;1.60;0.90;;;18.00;48.70;;;;;;5074510;28;43475;-59
2022/04/29 04:19:57;;;;;;;0.90;0.80;;;18.00;48.60;;;;;;5076782;27;43535;-59
2022/04/29 04:22:24;;;;;;;0.68;0.68;;;18.00;48.60;;;;;;5070442;28;44038;-61
2022/04/29 04:24:52;;;;;;;0.80;0.80;;;18.00;48.60;;;;;;5075216;28;43693;-60
2022/04/29 04:27:20;;;;;;;2.00;1.00;;;18.00;48.60;;;;;;5077372;28;43424;-60
2022/04/29 04:29:48;;;;;;;0.82;0.82;;;18.00;48.60;;;;;;5075632;28;43486;-59
2022/04/29 04:32:15;;;;;;;0.90;0.90;;;18.00;48.70;;;;;;5064725;28;43872;-61
2022/04/29 04:34:52;;;;;;;1.23;1.10;;;18.00;48.60;;;;;;5083379;27;43901;-60
2022/04/29 04:37:28;;;;;;;1.00;0.70;;;18.00;48.70;;;;;;5076541;28;43538;-60
2022/04/29 04:39:59;;;;;;;0.88;0.85;;;18.00;48.60;;;;;;5076470;27;43435;-59
2022/04/29 04:42:45;;;;;;;1.48;0.70;;;18.00;48.70;;;;;;5093246;27;44973;-61
2022/04/29 04:45:24;;;;;;;0.77;0.77;;;18.00;48.70;;;;;;5074793;28;44179;-60
2022/04/29 04:48:11;;;;;;;0.88;0.82;;;18.00;48.70;;;;;;5068939;28;43509;-60
2022/04/29 04:51:01;;;;;;;0.80;0.80;;;18.00;48.70;;;;;;5068987;28;43403;-60
2022/04/29 04:53:29;;;;;;;2.10;0.90;;;18.00;48.80;;;;;;5071698;27;44695;-60
2022/04/29 04:55:57;;;;;;;1.45;0.90;;;18.00;48.70;;;;;;5078444;28;43557;-59
2022/04/29 04:58:25;;;;;;;1.20;0.93;;;17.90;48.70;;;;;;5049179;28;43524;-60
2022/04/29 05:00:53;;;;;;;0.95;0.90;;;17.90;48.70;;;;;;5067149;28;43614;-59
2022/04/29 05:03:40;;;;;;;1.80;1.02;;;17.90;48.70;;;;;;5072069;28;43787;-60
2022/04/29 05:06:26;;;;;;;1.25;0.70;;;17.90;48.80;;;;;;5068429;28;43497;-58
2022/04/29 05:08:53;;;;;;;1.40;0.70;;;17.90;48.80;;;;;;5053429;28;44083;-60
2022/04/29 05:11:21;;;;;;;1.15;1.00;;;17.90;48.70;;;;;;5071313;27;43570;-60
2022/04/29 05:14:19;;;;;;;1.00;0.90;;;17.90;48.70;;;;;;5070951;28;44066;-60
2022/04/29 05:16:47;;;;;;;0.77;0.77;;;17.90;48.80;;;;;;5068051;28;43431;-59
2022/04/29 05:19:33;;;;;;;1.05;0.95;;;17.90;48.80;;;;;;5072435;28;43485;-59
2022/04/29 05:22:01;;;;;;;0.77;0.77;;;17.90;48.80;;;;;;5079402;28;43496;-59
2022/04/29 05:24:29;;;;;;;1.08;1.00;;;17.90;48.90;;;;;;5073159;28;44932;-60
2022/04/29 05:27:17;;;;;;;0.75;0.70;;;17.80;48.80;;;;;;5063165;28;43509;-60
2022/04/29 05:30:23;;;;;;;0.80;0.80;;;17.80;48.80;;;;;;5037281;28;43608;-60
2022/04/29 05:33:25;;;;;;;0.85;0.73;;;17.80;48.80;;;;;;5037253;28;43584;-60
2022/04/29 05:36:12;;;;;;;1.05;0.90;;;17.80;48.90;;;;;;5065018;28;44804;-60
2022/04/29 05:44:34;;;;;;;0.98;0.77;;;17.80;49.00;;;;;;5080481;27;43556;-59
2022/04/29 05:47:03;;;;;;;0.90;0.80;;;17.90;49.00;;;;;;5065763;28;44115;-60
2022/04/29 05:49:31;;;;;;;1.73;0.80;;;17.80;49.00;;;;;;5075773;28;43447;-60
2022/04/29 05:52:01;;;;;;;0.88;0.70;;;17.90;49.00;;;;;;5074125;28;43469;-60
2022/04/29 05:54:31;;;;;;;0.88;0.88;;;17.80;48.90;;;;;;5070261;28;43575;-60
2022/04/29 05:57:00;;;;;;;1.75;0.90;;;17.90;49.00;;;;;;5086340;27;44000;-59
2022/04/29 05:59:29;;;;;;;1.20;0.90;;;17.90;48.90;;;;;;5081229;28;43407;-59
2022/04/29 06:02:15;;;;;;;1.60;0.95;;;17.90;49.00;;;;;;5076922;28;43394;-59
2022/04/29 06:04:50;;;;;;;1.33;0.68;;;17.80;48.90;;;;;;5068569;28;43415;-60
2022/04/29 06:07:18;;;;;;;0.80;0.80;;;17.90;49.00;;;;;;5076784;28;44758;-59
2022/04/29 06:09:46;;;;;;;0.88;0.73;;;17.90;49.00;;;;;;5078054;28;43947;-60
2022/04/29 06:12:14;;;;;;;2.60;1.90;;;17.90;49.00;;;;;;5075305;28;43498;-60
2022/04/29 06:14:43;;;;;;;3.20;1.73;;;17.90;49.10;;;;;;5075402;28;43565;-59
2022/04/29 06:17:31;;;;;;;2.90;1.58;;;17.90;49.10;;;;;;5076188;28;45292;-61
2022/04/29 06:20:17;;;;;;;2.35;1.50;;;18.00;49.10;;;;;;5067281;28;43439;-60
2022/04/29 06:23:13;;;;;;;1.65;1.52;;;18.00;49.00;;;;;;5073244;28;43435;-60
2022/04/29 06:25:41;;;;;;;2.30;1.67;;;18.20;49.00;;;;;;5080111;28;44078;-60
2022/04/29 06:28:08;;;;;;;2.10;1.50;;;18.20;48.90;;;;;;5080534;28;44995;-59
2022/04/29 06:30:39;;;;;;;1.40;1.30;;;18.40;48.80;;;;;;5069623;28;43925;-60
2022/04/29 06:33:43;;;;;;;1.73;1.30;;;18.50;48.70;;;;;;5054448;28;43499;-60
2022/04/29 06:36:14;;;;;;;1.45;1.35;;;18.60;48.60;;;;;;5084587;28;43529;-61
2022/04/29 06:38:45;;;;;;;1.85;1.30;;;18.70;48.50;;;;;;5074020;28;44034;-60
2022/04/29 06:41:31;;;;;;;1.50;1.40;;;18.80;48.40;;;;;;5070291;28;44286;-59
2022/04/29 06:44:04;;;;;;;1.58;1.30;;;18.90;48.20;;;;;;5071743;28;43432;-61
2022/04/29 06:46:52;;;;;;;1.75;1.20;;;19.00;48.10;;;;;;5068287;28;43480;-60
2022/04/29 06:49:58;;;;;;;1.45;1.23;;;19.10;48.10;;;;;;4997405;28;45000;-60
2022/04/29 06:52:52;;;;;;;1.02;1.00;;;19.20;47.90;;;;;;4964940;28;43549;-59
2022/04/29 06:55:21;;;;;;;1.25;1.15;;;19.30;47.70;;;;;;5045413;28;43471;-60
2022/04/29 06:57:49;;;;;;;1.65;1.10;;;19.50;47.60;;;;;;5077364;28;43498;-59
2022/04/29 07:00:19;;;;;;;1.35;0.90;;;19.50;47.70;;;;;;5062817;28;43608;-60
2022/04/29 07:02:47;;;;;;;1.38;1.13;;;19.60;47.50;;;;;;5064536;28;43526;-59
2022/04/29 07:05:16;;;;;;;1.80;0.90;;;19.70;47.40;;;;;;5079684;28;43352;-60
2022/04/29 07:07:43;;;;;;;1.10;1.00;;;19.80;47.30;;;;;;5075412;28;43569;-60
2022/04/29 07:10:34;;;;;;;1.00;1.00;;;19.90;47.00;;;;;;5068503;28;45061;-59
2022/04/29 07:13:27;;;;;;;2.05;1.10;;;20.00;47.00;;;;;;5038469;28;43639;-61
2022/04/29 07:15:55;;;;;;;2.58;1.10;;;20.10;46.90;;;;;;5067459;28;43416;-60
2022/04/29 07:18:46;;;;;;;4.78;1.08;;;20.10;46.90;;;;;;5063624;28;43472;-59
2022/04/29 07:21:15;;;;;;;1.70;1.00;;;20.20;46.70;;;;;;5080532;28;44725;-60
2022/04/29 07:23:42;;;;;;;2.35;1.10;;;20.30;46.60;;;;;;5079007;28;44462;-60
2022/04/29 07:26:11;;;;;;;2.20;1.00;;;20.40;46.60;;;;;;5069471;28;43473;-59
2022/04/29 07:28:39;;;;;;;3.38;1.10;;;20.60;46.60;;;;;;5054151;28;43483;-59
2022/04/29 07:31:06;;;;;;;4.00;1.00;;;20.70;46.50;;;;;;5083055;28;43790;-61
2022/04/29 07:33:52;;;;;;;2.72;1.10;;;20.80;46.40;;;;;;5076024;28;43474;-61
2022/04/29 07:42:25;;;;;;;1.83;0.90;;;21.30;46.60;;;;;;5076138;28;45038;-61
2022/04/29 07:44:53;;;;;;;2.63;1.17;;;21.40;46.50;;;;;;5073820;28;43956;-61
2022/04/29 07:47:46;;;;;;;3.22;0.90;;;21.50;46.40;;;;;;5064774;28;43527;-60
2022/04/29 07:50:23;;;;;;;5.45;0.98;;;21.60;46.30;;;;;;5078598;28;43543;-61
2022/04/29 07:52:56;;;;;;;2.78;0.90;;;21.70;46.10;;;;;;5078544;28;44012;-62
2022/04/29 07:55:24;;;;;;;1.92;1.10;;;21.90;45.90;;;;;;5065789;28;43924;-60
2022/04/29 07:57:52;;;;;;;2.63;1.20;;;22.00;45.80;;;;;;5071408;28;43499;-61
2022/04/29 08:00:21;;;;;;;2.90;1.10;;;22.10;45.50;;;;;;5067396;28;43579;-59
2022/04/29 08:02:51;;;;;;;3.97;0.90;;;22.10;45.20;;;;;;5080546;28;45031;-61
2022/04/29 08:05:37;;;;;;;5.70;1.10;;;22.20;45.20;;;;;;5066135;28;43510;-61
2022/04/29 08:08:04;;;;;;;3.60;1.00;;;22.30;44.90;;;;;;5065872;28;43530;-61
2022/04/29 08:10:32;;;;;;;2.28;1.00;;;22.30;44.90;;;;;;5081626;28;43488;-60
2022/04/29 08:13:02;;;;;;;0.80;0.80;;;22.40;44.70;;;;;;5077978;28;44758;-61
2022/04/29 08:15:49;;;;;;;1.35;0.90;;;22.60;44.60;;;;;;5067922;28;43415;-61
2022/04/29 08:18:36;;;;;;;2.38;1.20;;;22.60;44.50;;;;;;5073150;28;43562;-61
2022/04/29 08:21:05;;;;;;;3.72;1.10;;;22.70;44.30;;;;;;5079348;27;43495;-61
2022/04/29 08:23:33;;;;;;;4.05;0.90;;;22.80;44.00;;;;;;5074215;28;43806;-60
2022/04/29 08:26:01;;;;;;;3.78;1.20;;;22.80;44.20;;;;;;5069939;28;43437;-61
2022/04/29 08:28:29;;;;;;;2.50;0.80;;;22.80;44.00;;;;;;5072144;28;43464;-60
2022/04/29 08:30:57;;;;;;;3.72;1.00;;;22.80;44.00;;;;;;5074131;28;43440;-60
2022/04/29 08:33:40;;;;;;;1.55;0.98;;;22.90;43.90;;;;;;5073016;28;43891;-60
2022/04/29 08:36:15;;;;;;;2.60;1.10;;;22.90;44.60;;;;;;5071761;28;44024;-61
2022/04/29 08:38:43;;;;;;;1.42;1.00;;;22.80;44.00;;;;;;5065229;28;43506;-61
2022/04/29 08:41:11;;;;;;;2.88;1.02;;;22.80;44.10;;;;;;5087882;27;43475;-62
2022/04/29 08:43:39;;;;;;;2.03;1.10;;;22.80;44.10;;;;;;5070466;27;44756;-61
2022/04/29 08:46:13;;;;;;;5.30;0.90;;;22.90;44.20;;;;;;5069342;28;43426;-61
2022/04/29 08:48:53;;;;;;;3.50;1.00;;;22.90;44.20;;;;;;5066895;28;43504;-61
2022/04/29 08:51:21;;;;;;;1.90;0.90;;;22.90;44.10;;;;;;5070943;28;43535;-62
2022/04/29 08:53:48;;;;;;;1.23;0.68;;;23.00;43.90;;;;;;5071567;28;44753;-61
2022/04/29 08:59:04;;;;;;;1.77;0.80;;;23.10;43.90;;;;;;5063022;28;43415;-61
2022/04/29 09:01:32;;;;;;;1.10;1.00;;;23.10;43.80;;;;;;5071176;27;43508;-60
2022/04/29 09:03:59;;;;;;;1.20;0.95;;;23.10;43.90;;;;;;5081421;28;45336;-61
2022/04/29 09:06:27;;;;;;;2.47;1.00;;;23.10;43.80;;;;;;5080885;27;43505;-61
2022/04/29 09:09:07;;;;;;;4.82;1.63;;;23.00;43.80;;;;;;5068346;28;43479;-60
2022/04/29 09:11:35;;;;;;;1.92;0.98;;;23.00;44.20;;;;;;5061558;28;43478;-61
2022/04/29 09:14:23;;;;;;;1.60;0.80;;;22.90;44.20;;;;;;5078674;27;44878;-61
2022/04/29 09:16:51;;;;;;;2.70;0.77;;;22.90;44.30;;;;;;5063981;28;43765;-61
2022/04/29 09:19:33;;;;;;;2.90;1.00;;;22.80;44.20;;;;;;5072324;28;43553;-60
2022/04/29 09:22:09;;;;;;;0.82;0.70;;;22.80;44.20;;;;;;5093443;27;43591;-61
2022/04/29 09:25:03;;;;;;;1.50;0.98;;;22.80;44.20;;;;;;5068696;28;44947;-61
2022/04/29 09:28:04;;;;;;;2.58;1.13;;;22.70;44.10;;;;;;5062596;28;43480;-61
2022/04/29 09:31:05;;;;;;;2.08;0.82;;;22.70;44.20;;;;;;5076046;27;43398;-61
2022/04/29 09:33:57;;;;;;;2.35;1.10;;;22.60;44.20;;;;;;5079235;28;43449;-61
2022/04/29 09:36:33;;;;;;;3.08;0.93;;;22.60;44.30;;;;;;5072332;28;44012;-60
2022/04/29 09:42:00;;;;;;;2.72;1.20;;;22.50;44.30;;;;;;5081751;28;43522;-61
2022/04/29 09:44:31;;;;;;;2.42;1.40;;;22.40;44.40;;;;;;5076695;28;43426;-60
2022/04/29 09:47:12;;;;;;;2.45;1.00;;;22.40;44.50;;;;;;5072128;28;45029;-60
2022/04/29 09:49:40;;;;;;;;;;;22.30;44.50;;;;;;5079338;28;43704;-60
2022/04/29 09:52:08;;;;;;;4.57;1.90;;;22.30;44.50;;;;;;5081218;27;43447;-60
2022/04/29 09:54:39;;;;;;;2.63;1.63;;;22.20;44.60;;;;;;5077264;28;43624;-60
2022/04/29 09:57:09;;;;;;;3.60;1.80;;;22.20;44.70;;;;;;5078175;28;45114;-61
2022/04/29 09:59:38;;;;;;;2.60;1.50;;;22.20;44.70;;;;;;5080701;27;43443;-60
2022/04/29 10:02:07;;;;;;;4.47;1.60;;;22.10;44.70;;;;;;5079807;27;43474;-60
2022/04/29 10:04:38;;;;;;;4.00;1.80;;;22.10;44.70;;;;;;5074276;28;43623;-60
2022/04/29 10:07:15;;;;;;;4.53;1.80;;;22.00;44.70;;;;;;5064142;28;44032;-60
2022/04/29 10:09:54;;;;;;;3.28;1.88;;;22.00;44.90;;;;;;5093061;27;43815;-60
2022/04/29 10:12:23;;;;;;;4.13;2.00;;;22.00;44.90;;;;;;5072840;28;43553;-61
2022/04/29 10:15:17;;;;;;;4.30;2.47;;;21.90;45.10;;;;;;5069356;28;43608;-60
2022/04/29 10:23:33;;;;;;;6.10;2.70;;;21.80;45.20;;;;;;5072259;28;44053;-58
2022/04/29 10:26:02;;;;;;;3.35;2.00;;;21.70;45.10;;;;;;5058342;28;43461;-58
2022/04/29 10:28:30;;;;;;;2.83;1.98;;;21.80;45.30;;;;;;5081327;27;43800;-60
2022/04/29 10:31:06;;;;;;;3.28;2.22;;;21.70;45.40;;;;;;5072293;28;43522;-58
2022/04/29 10:33:36;;;;;;;4.15;2.30;;;21.70;45.20;;;;;;5070094;28;43476;-59
2022/04/29 10:36:16;;;;;;;4.45;2.08;;;21.60;45.40;;;;;;5082952;28;43581;-59
2022/04/29 10:38:48;;;;;;;4.43;2.00;;;21.60;45.50;;;;;;5075120;28;44057;-58
2022/04/29 10:41:20;;;;;;;5.53;2.28;;;21.60;45.90;;;;;;5074452;28;43449;-58
2022/04/29 10:43:51;;;;;;;4.75;2.05;;;21.50;45.70;;;;;;5068053;27;43996;-59
2022/04/29 10:46:32;;;;;;;3.30;2.20;;;21.50;45.80;;;;;;5078275;27;43463;-59
2022/04/29 10:49:35;;;;;;;3.88;1.88;;;21.50;45.80;;;;;;4992448;28;44416;-59
2022/04/29 10:52:28;;;;;;;4.35;2.30;;;21.50;45.90;;;;;;5070162;28;43452;-59
2022/04/29 10:55:05;;;;;;;3.95;2.10;;;21.50;46.00;;;;;;5081578;27;43399;-59
2022/04/29 10:57:43;;;;;;;2.75;1.90;;;21.40;46.00;;;;;;5078798;28;43539;-59
2022/04/29 11:00:23;;;;;;;3.15;1.80;;;21.40;46.00;;;;;;5065082;28;44957;-60
2022/04/29 11:02:55;;;;;;;4.00;2.17;;;21.40;46.10;;;;;;5080141;28;43525;-59
2022/04/29 11:05:36;;;;;;;4.07;1.92;;;21.30;46.00;;;;;;5062377;28;43517;-59
2022/04/29 11:08:10;;;;;;;2.30;1.70;;;21.30;46.00;;;;;;5074275;27;43552;-59
2022/04/29 11:10:58;;;;;;;3.72;1.65;;;21.30;46.10;;;;;;5070974;28;44689;-59
2022/04/29 11:13:42;;;;;;;2.42;1.70;;;21.30;46.20;;;;;;5073258;28;44025;-59
2022/04/29 11:16:52;;;;;;;2.70;1.83;;;21.20;46.30;;;;;;5064154;27;43533;-58
2022/04/29 11:19:45;;;;;;;3.78;2.25;;;21.20;46.30;;;;;;5068346;28;43487;-61
2022/04/29 11:25:06;;;;;;;3.90;2.00;;;21.10;46.40;;;;;;5064357;28;43948;-60
2022/04/29 11:27:40;;;;;;;2.85;2.00;;;21.10;46.40;;;;;;5071244;27;43501;-59
2022/04/29 11:30:19;;;;;;;3.72;1.77;;;21.00;46.40;;;;;;5068577;28;43567;-60
2022/04/29 11:32:58;;;;;;;2.00;1.60;;;21.00;46.50;;;;;;5072959;28;45027;-61
2022/04/29 11:35:26;;;;;;;3.08;1.95;;;21.00;46.50;;;;;;5077163;28;43522;-60
2022/04/29 11:37:53;;;;;;;3.05;1.70;;;21.00;46.50;;;;;;5070825;28;43517;-60
2022/04/29 11:40:21;;;;;;;3.03;1.50;;;21.00;46.60;;;;;;5070242;28;43498;-58
2022/04/29 11:42:51;;;;;;;2.00;1.63;;;20.90;46.60;;;;;;5080854;28;44387;-59
2022/04/29 11:45:23;;;;;;;1.90;1.65;;;20.90;46.60;;;;;;5071484;28;43705;-59
2022/04/29 11:48:01;;;;;;;2.20;1.50;;;20.90;46.60;;;;;;5067435;28;43473;-59
2022/04/29 11:50:35;;;;;;;2.83;1.77;;;20.90;46.70;;;;;;5060395;28;43523;-59
2022/04/29 11:53:12;;;;;;;1.98;1.60;;;20.90;46.70;;;;;;5077386;28;43816;-59
2022/04/29 11:55:40;;;;;;;2.40;1.40;;;20.90;46.70;;;;;;5067650;28;43411;-58
2022/04/29 11:58:08;;;;;;;2.25;1.67;;;20.80;46.70;;;;;;5067822;27;43400;-58
2022/04/29 12:00:36;;;;;;;3.53;1.60;;;20.80;46.70;;;;;;5070969;28;43652;-58
2022/04/29 12:03:04;;;;;;;2.38;1.65;;;20.80;46.80;;;;;;5074241;28;44933;-58
2022/04/29 12:05:32;;;;;;;2.15;1.40;;;20.80;46.80;;;;;;5070214;28;44865;-58
2022/04/29 12:08:12;;;;;;;2.92;1.70;;;20.80;46.90;;;;;;5081254;28;43526;-59
2022/04/29 12:11:02;;;;;;;2.38;1.95;;;20.80;46.80;;;;;;5076822;27;43692;-58
2022/04/29 12:13:30;;;;;;;2.38;1.50;;;20.70;46.70;;;;;;5073134;28;45389;-58
2022/04/29 12:15:59;;;;;;;2.13;1.50;;;20.70;46.70;;;;;;5070805;28;43710;-59
2022/04/29 12:18:48;;;;;;;1.67;1.40;;;20.70;46.80;;;;;;5071115;28;43546;-58
2022/04/29 12:21:25;;;;;;;1.95;1.70;;;20.70;46.80;;;;;;5067653;28;43566;-58
2022/04/29 12:23:53;;;;;;;1.98;1.50;;;20.70;46.70;;;;;;5070844;28;43962;-58
2022/04/29 12:26:21;;;;;;;2.05;1.60;;;20.70;46.70;;;;;;5072085;28;43748;-59
2022/04/29 12:28:56;;;;;;;2.53;1.40;;;20.70;46.70;;;;;;5076597;28;43452;-59
2022/04/29 12:37:10;;;;;;;;;;;20.70;46.80;;;;;;5083482;27;43962;-58
2022/04/29 12:39:48;;;;;;;1.58;1.48;;;20.70;47.00;;;;;;5061120;28;43413;-57
2022/04/29 12:42:21;;;;;;;1.67;1.33;;;20.70;47.00;;;;;;5066661;28;43618;-58
2022/04/29 12:45:14;;;;;;;2.47;1.65;;;20.70;47.00;;;;;;5079774;28;44944;-59
2022/04/29 12:47:53;;;;;;;;;;;20.70;47.00;;;;;;5078657;27;44314;-58
2022/04/29 12:50:28;;;;;;;1.50;1.33;;;20.70;47.10;;;;;;5064317;28;43409;-59
2022/04/29 12:53:00;;;;;;;2.67;1.50;;;20.60;47.10;;;;;;5076546;28;43550;-59
2022/04/29 12:55:35;;;;;;;1.92;1.50;;;20.60;47.10;;;;;;5059537;28;43808;-59
2022/04/29 12:58:08;;;;;;;1.30;1.20;;;20.60;47.00;;;;;;5073958;27;43424;-58
2022/04/29 13:00:40;;;;;;;1.73;1.23;;;20.60;47.00;;;;;;5069694;28;43466;-59
2022/04/29 13:03:21;;;;;;;1.45;1.35;;;20.60;47.00;;;;;;5079925;28;43450;-59
2022/04/29 13:06:01;;;;;;;2.03;1.60;;;20.60;47.10;;;;;;5075152;28;44697;-59
2022/04/29 13:08:29;;;;;;;2.08;1.35;;;20.60;47.10;;;;;;5070387;28;43477;-58
2022/04/29 13:10:58;;;;;;;2.67;1.60;;;20.50;47.10;;;;;;5069876;27;43448;-58
2022/04/29 13:13:28;;;;;;;1.30;1.20;;;20.50;47.10;;;;;;5081987;27;43588;-59
2022/04/29 13:15:56;;;;;;;1.75;1.27;;;20.50;47.10;;;;;;5065237;28;43877;-58
2022/04/29 13:18:28;;;;;;;1.50;1.38;;;20.50;47.10;;;;;;5070246;28;43447;-58
2022/04/29 13:20:56;;;;;;;1.95;1.60;;;20.50;47.10;;;;;;5068159;28;43445;-60
2022/04/29 13:23:27;;;;;;;2.70;1.55;;;20.50;47.10;;;;;;5080418;28;43588;-60
2022/04/29 13:25:58;;;;;;;2.60;1.35;;;20.40;47.10;;;;;;5077693;27;44862;-59
2022/04/29 13:28:26;;;;;;;2.15;1.58;;;20.50;47.10;;;;;;5070423;28;43483;-59
2022/04/29 13:30:53;;;;;;;1.70;1.58;;;20.40;47.10;;;;;;5056066;28;43466;-58
2022/04/29 13:33:21;;;;;;;2.30;1.73;;;20.40;47.20;;;;;;5080501;28;43502;-59
2022/04/29 13:35:48;;;;;;;1.73;1.42;;;20.40;47.30;;;;;;5070883;28;44069;-60
2022/04/29 13:38:16;;;;;;;1.95;1.60;;;20.40;47.30;;;;;;5070109;28;43481;-59
2022/04/29 13:40:44;;;;;;;4.25;1.90;;;20.40;47.30;;;;;;5058519;28;43495;-58
2022/04/29 13:43:15;;;;;;;2.63;1.60;;;20.40;47.50;;;;;;5077395;27;43565;-59
2022/04/29 13:45:47;;;;;;;7.32;2.30;;;20.30;47.50;;;;;;5069434;28;44683;-59
2022/04/29 13:48:15;;;;;;;4.50;2.10;;;20.30;47.60;;;;;;5066568;27;43703;-59
2022/04/29 13:50:43;;;;;;;5.97;2.25;;;20.30;47.60;;;;;;5079765;28;43509;-59
2022/04/29 13:53:14;;;;;;;3.40;2.00;;;20.30;47.60;;;;;;5069578;27;43555;-59
2022/04/29 13:55:47;;;;;;;4.15;2.08;;;20.30;47.70;;;;;;5067451;28;44678;-59